sim
Sign-in with your pilot id or email,
or register
Callsign
Passwort

Schedule Details

Flight Number: RYR5071
Departure: Hamburg Airport (EDDH) at 05:40
Arrival: Thessaloniki International Airport (LGTS) at 08:30
Route: Ryanair Passenger Schedule. Enter filed route here before submitting Pirep.

Weather Information
Getting current METAR information for EDDH 230650Z 16004KT CAVOK 20/14 Q1026 NOSIG
Getting current METAR information for LGTS 230650Z 28004KT CAVOK 29/19 Q1020 NOSIG

Schedule Frequency

Route Map